Terminal Aerodrome Forecast
Issued by NWS Topeka, KS

Home | Current Version | Previous Version | Text Only | Print | Product List | Glossary Off
Versions: 1 2 3 4 5 6 7 8 9 10 11 12 13 14 15 16 17 18 19 20 21 22 23 24 25 26

000
FTUS43 KTOP 272300
TAFTOP
TAF
KTOP 272320Z 2800/2824 11005KT P6SM BKN250
      TEMPO 2811/2814 -TSRA BKN035CB
     FM281500 15009KT P6SM SCT040 BKN150
     FM282000 17012KT P6SM VCTS SCT040CB=

USA.gov is the U.S. government's official web portal to all federal, state and local government web resources and services.